CDT,Max TemperatureF,Mean TemperatureF,Min TemperatureF,Max Dew PointF,MeanDew PointF,Min DewpointF,Max Humidity, Mean Humidity, Min Humidity, Max Sea Level PressureIn, Mean Sea Level PressureIn, Min Sea Level PressureIn, Max VisibilityMiles, Mean VisibilityMiles, Min VisibilityMiles, Max Wind SpeedMPH, Mean Wind SpeedMPH, Max Gust SpeedMPH,PrecipitationIn, CloudCover, Events, WindDirDegrees
2013-10-1,89,84,79,80,77,74,96,84,67,29.90,29.85,29.81,10,10,5,16,7,23,0.05,2,Rain-Thunderstorm,163
2013-10-2,90,84,77,78,75,73,94,76,57,29.93,29.89,29.85,10,10,10,17,8,22,0.00,2,,148
2013-10-3,89,83,77,78,74,72,95,75,57,29.93,29.88,29.85,10,10,5,14,8,22,0.06,2,Rain,150
2013-10-4,89,84,79,77,75,73,90,75,62,29.91,29.88,29.85,10,10,10,17,9,23,0.00,2,,148
2013-10-5,90,82,75,79,76,74,97,81,60,29.92,29.88,29.84,10,10,10,13,6,,0.00,1,,134
2013-10-6,79,68,58,78,57,45,98,68,29,30.11,30.04,29.92,10,10,3,23,13,34,0.24,4,Rain-Thunderstorm,360
2013-10-7,84,69,54,58,50,39,91,57,20,30.15,30.09,30.04,10,10,10,12,6,16,0.00,0,,9
2013-10-8,83,70,56,61,57,52,96,68,33,30.09,30.04,29.99,10,10,10,10,3,,0.00,0,,55
2013-10-9,86,76,66,68,64,60,82,66,43,30.04,29.99,29.95,10,10,10,12,6,20,0.00,2,,130
2013-10-10,87,80,72,72,69,66,82,70,53,30.01,29.95,29.90,10,10,10,17,8,23,0.00,3,,139
2013-10-11,89,84,79,80,76,71,94,78,62,29.92,29.87,29.83,10,10,10,18,12,24,0.00,4,,145
2013-10-12,90,85,80,81,79,76,97,84,64,30.00,29.94,29.88,10,10,7,20,10,25,0.00,3,,152
2013-10-13,86,82,77,80,77,75,96,88,71,30.10,30.03,29.98,10,10,2,18,8,24,0.17,3,Rain,131
2013-10-14,87,82,78,78,74,70,95,78,58,30.05,29.99,29.92,10,10,2,17,9,24,0.11,2,Rain,141
2013-10-15,88,82,77,74,72,70,90,73,57,29.96,29.92,29.86,10,10,10,16,8,20,0.00,1,,153
2013-10-16,79,72,66,77,68,61,97,81,62,30.03,29.94,29.87,10,10,10,15,8,20,0.00,4,Rain,21
2013-10-17,81,73,65,64,59,55,82,68,47,30.09,30.01,29.95,10,10,4,15,10,18,0.00,5,,34
2013-10-18,82,76,69,77,72,63,98,89,74,29.97,29.89,29.80,10,8,2,15,7,22,0.18,7,Rain-Thunderstorm,55
2013-10-19,75,66,55,74,58,45,99,75,37,30.13,30.04,29.89,10,10,10,23,13,29,0.00,4,Rain-Thunderstorm,7
2013-10-20,78,64,51,65,58,48,96,78,59,30.08,30.00,29.92,10,10,10,10,5,,0.00,3,,60
2013-10-21,82,74,67,73,71,66,99,88,70,29.95,29.90,29.85,10,9,0,16,5,31,0.40,6,Rain-Thunderstorm,89
2013-10-22,81,70,57,71,60,50,100,75,37,30.11,30.05,29.95,10,9,0,17,10,22,0.00,2,Fog,356
2013-10-23,82,67,52,58,50,38,92,62,21,30.18,30.12,30.10,10,9,4,9,5,,0.00,0,,37
2013-10-24,82,70,57,66,60,55,95,74,39,30.20,30.16,30.12,10,10,10,10,4,,0.00,0,,44
2013-10-25,82,73,64,70,66,64,99,78,56,30.28,30.21,30.18,10,10,10,17,6,22,0.00,1,,81
2013-10-26,84,77,70,72,68,65,93,73,53,30.19,30.13,30.06,10,10,10,18,9,25,0.00,2,,130
2013-10-27,86,77,68,75,70,64,99,83,47,30.08,30.03,29.97,10,9,0,14,4,18,0.00,2,Fog,140
2013-10-28,85,78,71,76,72,69,99,82,60,30.07,30.02,29.99,10,10,5,21,9,26,0.00,1,,137
2013-10-29,85,80,76,78,73,70,94,78,63,30.08,30.03,29.97,10,10,10,22,14,28,0.00,3,,139
2013-10-30,87,82,78,79,77,76,97,88,69,30.01,29.92,29.83,10,10,10,24,14,33,0.00,5,Thunderstorm,155
2013-10-31,89,82,75,80,76,65,97,85,45,29.88,29.83,29.77,10,9,1,21,12,25,0.57,4,Rain-Thunderstorm,198